createdAt,value
2019-04-28T00:01:37.033Z,37.23
2019-04-28T00:04:14.077Z,35.77
2019-04-28T00:06:51.559Z,45.17
2019-04-28T00:09:31.250Z,43.33
2019-04-28T00:12:08.385Z,39.47
2019-04-28T00:14:45.410Z,40.73
2019-04-28T00:17:22.381Z,41.07
2019-04-28T00:20:01.429Z,48.07
2019-04-28T00:22:56.998Z,36.73
2019-04-28T00:25:38.395Z,38.70
2019-04-28T00:28:15.383Z,37.90
2019-04-28T00:30:52.430Z,39.60
2019-04-28T00:33:29.435Z,35.60
2019-04-28T00:36:06.471Z,40.03
2019-04-28T00:38:43.509Z,38.10
2019-04-28T00:41:21.345Z,35.30
2019-04-28T00:43:58.490Z,38.83
2019-04-28T00:46:41.068Z,39.77
2019-04-28T00:49:21.354Z,40.93
2019-04-28T00:51:58.461Z,41.50
2019-04-28T00:54:35.471Z,44.83
2019-04-28T00:57:12.864Z,43.70
2019-04-28T00:59:58.255Z,43.77
2019-04-28T01:02:36.673Z,41.67
2019-04-28T01:05:14.308Z,41.03
2019-04-28T01:07:51.367Z,39.40
2019-04-28T01:10:30.807Z,45.27
2019-04-28T01:13:08.258Z,40.47
2019-04-28T01:16:05.508Z,38.80
2019-04-28T01:18:48.070Z,46.30
2019-04-28T01:21:27.352Z,41.40
2019-04-28T01:24:04.417Z,38.67
2019-04-28T01:26:41.670Z,35.23
2019-04-28T01:29:19.497Z,38.73
2019-04-28T01:32:10.315Z,35.50
2019-04-28T01:34:46.440Z,36.93
2019-04-28T01:37:23.493Z,42.23
2019-04-28T01:40:00.519Z,42.57
2019-04-28T01:42:37.565Z,43.60
2019-04-28T01:45:14.597Z,42.17
2019-04-28T01:47:51.650Z,46.00
2019-04-28T01:50:29.968Z,48.90
2019-04-28T01:53:07.119Z,48.53
2019-04-28T01:55:44.133Z,51.17
2019-04-28T01:58:27.020Z,45.43
2019-04-28T02:01:20.329Z,42.97
2019-04-28T02:04:16.157Z,41.97
2019-04-28T02:06:53.206Z,45.67
2019-04-28T02:09:30.221Z,46.67
2019-04-28T02:12:07.414Z,43.30
2019-04-28T02:14:44.431Z,44.70
2019-04-28T02:17:21.571Z,37.03
2019-04-28T02:20:00.653Z,40.73
2019-04-28T02:22:50.010Z,36.40
2019-04-28T02:25:27.221Z,37.97
2019-04-28T02:28:04.237Z,33.90
2019-04-28T02:30:48.888Z,32.40
2019-04-28T02:33:21.138Z,35.00
2019-04-28T02:36:01.205Z,32.83
2019-04-28T02:38:37.001Z,30.20
2019-04-28T02:41:14.008Z,29.80
2019-04-28T02:43:51.209Z,29.83
2019-04-28T02:46:30.665Z,28.70
2019-04-28T02:49:10.246Z,29.17
2019-04-28T02:51:54.794Z,26.87
2019-04-28T02:54:31.786Z,27.00
2019-04-28T02:57:10.751Z,27.80
2019-04-28T02:59:50.815Z,26.10
2019-04-28T03:02:31.653Z,26.90
2019-04-28T03:05:11.873Z,24.70
2019-04-28T03:07:51.463Z,27.23
2019-04-28T03:10:31.035Z,27.73
2019-04-28T03:13:10.817Z,25.13
2019-04-28T03:15:51.516Z,22.00
2019-04-28T03:18:31.733Z,20.97
2019-04-28T03:21:08.062Z,22.27
2019-04-28T03:23:53.366Z,20.07
2019-04-28T03:26:41.503Z,17.73
2019-04-28T03:29:26.350Z,19.13
2019-04-28T03:32:25.112Z,17.57
2019-04-28T03:34:53.175Z,15.73
2019-04-28T03:37:31.327Z,15.33
2019-04-28T03:40:07.395Z,15.50
2019-04-28T03:42:51.266Z,15.20
2019-04-28T03:45:30.676Z,17.07
2019-04-28T03:48:11.490Z,16.90
2019-04-28T03:50:51.214Z,16.33
2019-04-28T03:53:27.299Z,15.90
2019-04-28T03:56:04.325Z,17.77
2019-04-28T03:58:42.122Z,16.33
2019-04-28T04:01:20.679Z,18.27
2019-04-28T04:03:57.970Z,16.47
2019-04-28T04:06:40.954Z,11.60
2019-04-28T04:09:24.287Z,11.50
2019-04-28T04:12:36.607Z,11.03
2019-04-28T04:15:42.532Z,8.60
2019-04-28T04:18:26.279Z,8.20
2019-04-28T04:21:03.538Z,9.70
2019-04-28T04:23:41.088Z,6.87
2019-04-28T04:26:21.024Z,7.47
2019-04-28T04:28:57.106Z,8.60
2019-04-28T04:31:34.111Z,9.73
2019-04-28T04:34:11.106Z,7.10
2019-04-28T04:36:50.714Z,6.40
2019-04-28T04:39:26.831Z,6.60
2019-04-28T04:42:03.791Z,6.57
2019-04-28T04:44:41.642Z,7.20
2019-04-28T04:47:21.091Z,6.40
2019-04-28T04:50:00.049Z,7.20
2019-04-28T04:52:36.136Z,6.87
2019-04-28T04:55:13.188Z,5.73
2019-04-28T04:57:50.743Z,6.03
2019-04-28T05:00:30.663Z,5.07
2019-04-28T05:03:15.193Z,5.77
2019-04-28T05:05:52.253Z,5.60
2019-04-28T05:08:30.156Z,6.47
2019-04-28T05:11:12.578Z,5.83
2019-04-28T05:14:01.375Z,6.50
2019-04-28T05:16:45.596Z,5.80
2019-04-28T05:19:26.485Z,4.97
2019-04-28T05:22:05.309Z,4.57
2019-04-28T05:25:01.616Z,6.70
2019-04-28T05:27:39.960Z,4.90
2019-04-28T05:30:17.035Z,6.23
2019-04-28T05:32:56.370Z,4.27
2019-04-28T05:35:35.651Z,4.40
2019-04-28T05:38:12.624Z,6.53
2019-04-28T05:40:49.865Z,3.93
2019-04-28T05:43:26.971Z,4.00
2019-04-28T05:46:04.055Z,5.43
2019-04-28T05:48:57.762Z,5.63
2019-04-28T05:51:36.390Z,4.33
2019-04-28T05:54:19.737Z,4.53
2019-04-28T05:56:59.720Z,5.37
2019-04-28T05:59:55.276Z,9.73
2019-04-28T06:02:36.647Z,6.10
2019-04-28T06:05:15.454Z,12.40
2019-04-28T06:08:09.989Z,11.73
2019-04-28T06:10:47.347Z,8.27
2019-04-28T06:13:24.361Z,5.07
2019-04-28T06:16:01.369Z,5.93
2019-04-28T06:18:39.460Z,5.87
2019-04-28T06:21:19.173Z,5.63
2019-04-28T06:23:56.236Z,6.03
2019-04-28T06:26:33.256Z,5.23
2019-04-28T06:29:13.304Z,5.27
2019-04-28T06:31:50.341Z,6.90
2019-04-28T06:34:28.948Z,4.93
2019-04-28T06:37:06.027Z,5.00
2019-04-28T06:39:43.046Z,5.57
2019-04-28T06:42:20.051Z,4.37
2019-04-28T06:44:57.080Z,4.60
2019-04-28T06:47:34.128Z,4.73
2019-04-28T06:50:11.186Z,4.87
2019-04-28T06:52:52.593Z,4.47
2019-04-28T06:55:31.210Z,5.00
2019-04-28T06:58:08.234Z,4.40
2019-04-28T07:00:45.287Z,4.03
2019-04-28T07:03:23.230Z,4.03
2019-04-28T07:06:00.555Z,4.73
2019-04-28T07:08:37.560Z,4.63
2019-04-28T07:11:14.633Z,4.00
2019-04-28T07:13:52.898Z,4.83
2019-04-28T07:16:32.356Z,7.07
2019-04-28T07:19:12.009Z,4.33
2019-04-28T07:22:09.092Z,4.70
2019-04-28T07:24:46.069Z,5.23
2019-04-28T07:27:26.083Z,16.23
2019-04-28T07:30:06.178Z,4.17
2019-04-28T07:32:43.279Z,3.90
2019-04-28T07:35:20.264Z,4.30
2019-04-28T07:37:57.401Z,4.40
2019-04-28T07:40:34.480Z,4.73
2019-04-28T07:43:11.539Z,3.97
2019-04-28T07:45:51.003Z,3.30
2019-04-28T07:48:28.133Z,3.57
2019-04-28T07:51:17.338Z,3.20
2019-04-28T07:53:56.042Z,2.80
2019-04-28T07:56:33.022Z,2.90
2019-04-28T07:59:10.247Z,5.00
2019-04-28T08:01:50.791Z,3.20
2019-04-28T08:04:27.866Z,4.43
2019-04-28T08:07:04.838Z,3.77
2019-04-28T08:09:41.909Z,3.47
2019-04-28T08:12:18.905Z,2.87
2019-04-28T08:14:55.968Z,3.30
2019-04-28T08:17:32.948Z,4.03
2019-04-28T08:20:09.974Z,3.60
2019-04-28T08:22:47.036Z,3.63
2019-04-28T08:25:24.113Z,3.47
2019-04-28T08:28:01.185Z,3.50
2019-04-28T08:30:38.235Z,4.53
2019-04-28T08:33:22.872Z,3.43
2019-04-28T08:35:59.896Z,4.53
2019-04-28T08:38:36.899Z,3.17
2019-04-28T08:41:13.978Z,4.20
2019-04-28T08:43:50.951Z,3.63
2019-04-28T08:46:27.994Z,5.40
2019-04-28T08:49:04.969Z,3.70
2019-04-28T08:51:42.245Z,3.23
2019-04-28T08:54:25.680Z,3.27
2019-04-28T08:57:03.902Z,4.20
2019-04-28T08:59:40.914Z,5.27
2019-04-28T09:02:23.880Z,3.40
2019-04-28T09:05:08.362Z,3.80
2019-04-28T09:07:45.399Z,5.63
2019-04-28T09:10:22.400Z,5.23
2019-04-28T09:12:59.467Z,4.80
2019-04-28T09:15:36.466Z,3.73
2019-04-28T09:18:13.478Z,5.00
2019-04-28T09:20:51.345Z,4.67
2019-04-28T09:23:28.377Z,5.70
2019-04-28T09:26:05.384Z,6.10
2019-04-28T09:28:42.426Z,8.63
2019-04-28T09:31:21.588Z,5.37
2019-04-28T09:34:07.328Z,4.00
2019-04-28T09:36:46.718Z,4.20
2019-04-28T09:39:28.313Z,5.13
2019-04-28T09:42:23.329Z,4.60
2019-04-28T09:45:08.178Z,8.67
2019-04-28T09:47:45.285Z,7.03
2019-04-28T09:50:22.388Z,5.13
2019-04-28T09:52:59.509Z,3.40
2019-04-28T09:55:39.179Z,3.47
2019-04-28T09:58:16.247Z,2.80
2019-04-28T10:00:53.233Z,4.30
2019-04-28T10:03:37.706Z,12.87
2019-04-28T10:06:15.746Z,6.50
2019-04-28T10:08:52.824Z,6.23
2019-04-28T10:11:30.862Z,4.03
2019-04-28T10:14:07.998Z,4.87
2019-04-28T10:16:45.045Z,6.17
2019-04-28T10:19:22.218Z,4.07
2019-04-28T10:21:59.231Z,5.10
2019-04-28T10:24:38.474Z,7.63
2019-04-28T10:27:15.524Z,6.57
2019-04-28T10:29:52.552Z,3.50
2019-04-28T10:32:29.558Z,5.60
2019-04-28T10:35:07.159Z,7.00
2019-04-28T10:37:45.576Z,4.13
2019-04-28T10:40:41.966Z,4.40
2019-04-28T10:43:18.998Z,8.97
2019-04-28T10:45:56.058Z,4.47
2019-04-28T10:48:33.039Z,5.60
2019-04-28T10:51:10.103Z,4.67
2019-04-28T10:53:47.095Z,6.23
2019-04-28T10:56:24.157Z,13.70
2019-04-28T10:59:01.416Z,5.07
2019-04-28T11:01:38.478Z,4.53
2019-04-28T11:04:36.540Z,5.17
2019-04-28T11:07:15.414Z,4.63
2019-04-28T11:09:56.742Z,12.33
2019-04-28T11:12:33.755Z,5.87
2019-04-28T11:15:12.394Z,4.57
2019-04-28T11:17:49.448Z,4.30
2019-04-28T11:20:29.541Z,4.80
2019-04-28T11:23:06.587Z,4.47
2019-04-28T11:25:43.577Z,8.57
2019-04-28T11:28:27.738Z,4.40
2019-04-28T11:31:04.795Z,7.70
2019-04-28T11:33:46.659Z,7.60
2019-04-28T11:36:25.608Z,12.80
2019-04-28T11:39:27.303Z,28.83
2019-04-28T11:42:04.322Z,4.70
2019-04-28T11:44:41.436Z,6.73
2019-04-28T11:47:20.066Z,4.90
2019-04-28T11:49:57.159Z,4.50
2019-04-28T11:52:34.225Z,4.60
2019-04-28T11:55:12.410Z,8.33
2019-04-28T11:57:50.535Z,5.47
2019-04-28T12:00:29.268Z,6.50
2019-04-28T12:03:06.735Z,6.00
2019-04-28T12:05:45.379Z,5.20
2019-04-28T12:08:22.440Z,8.70
2019-04-28T12:11:09.959Z,5.63
2019-04-28T12:13:51.815Z,6.00
2019-04-28T12:16:43.838Z,7.63
2019-04-28T12:19:31.307Z,5.73
2019-04-28T12:22:11.256Z,4.60
2019-04-28T12:24:50.748Z,6.50
2019-04-28T12:27:28.606Z,5.20
2019-04-28T12:30:06.119Z,4.93
2019-04-28T12:32:43.173Z,3.90
2019-04-28T12:35:20.372Z,5.47
2019-04-28T12:37:57.681Z,5.33
2019-04-28T12:40:34.775Z,4.00
2019-04-28T12:43:11.785Z,4.13
2019-04-28T12:45:48.837Z,3.77
2019-04-28T12:48:25.960Z,4.20
2019-04-28T12:51:03.015Z,4.17
2019-04-28T12:53:40.042Z,3.47
2019-04-28T12:56:17.231Z,18.63
2019-04-28T12:59:03.940Z,2.23
2019-04-28T13:01:48.631Z,2.63
2019-04-28T13:04:39.647Z,2.93
2019-04-28T13:07:16.706Z,3.13
2019-04-28T13:09:53.788Z,3.73
2019-04-28T13:12:30.849Z,2.23
2019-04-28T13:15:20.309Z,2.70
2019-04-28T13:17:57.657Z,2.50
2019-04-28T13:20:36.314Z,2.53
2019-04-28T13:23:13.362Z,3.60
2019-04-28T13:25:53.305Z,3.60
2019-04-28T13:28:30.325Z,2.63
2019-04-28T13:31:07.352Z,3.57
2019-04-28T13:33:56.013Z,2.93
2019-04-28T13:36:23.051Z,2.63
2019-04-28T13:39:01.741Z,2.10
2019-04-28T13:41:38.811Z,4.77
2019-04-28T13:44:17.519Z,4.37
2019-04-28T13:46:54.570Z,2.30
2019-04-28T13:49:33.269Z,2.00
2019-04-28T13:52:10.291Z,8.93
2019-04-28T13:54:48.979Z,2.53
2019-04-28T13:57:25.978Z,4.17
2019-04-28T14:00:06.758Z,6.60
2019-04-28T14:02:45.676Z,2.00
2019-04-28T14:05:24.287Z,4.07
2019-04-28T14:08:01.363Z,3.80
2019-04-28T14:10:38.393Z,2.33
2019-04-28T14:13:15.453Z,2.93
2019-04-28T14:15:52.625Z,3.00
2019-04-28T14:18:29.637Z,2.00
2019-04-28T14:21:08.039Z,2.60
2019-04-28T14:23:45.514Z,2.20
2019-04-28T14:26:22.567Z,4.17
2019-04-28T14:28:59.597Z,3.33
2019-04-28T14:31:36.621Z,3.00
2019-04-28T14:34:13.636Z,2.97
2019-04-28T14:36:50.702Z,2.27
2019-04-28T14:39:28.665Z,2.87
2019-04-28T14:42:05.742Z,3.13
2019-04-28T14:44:45.216Z,4.20
2019-04-28T14:47:22.292Z,3.43
2019-04-28T14:50:02.691Z,4.03
2019-04-28T14:52:38.485Z,2.27
2019-04-28T14:55:15.513Z,4.63
2019-04-28T14:57:52.591Z,4.57
2019-04-28T15:00:37.557Z,2.77
2019-04-28T15:03:16.186Z,3.60
2019-04-28T15:06:01.117Z,5.93
2019-04-28T15:08:56.056Z,5.50
2019-04-28T15:11:34.896Z,4.77
2019-04-28T15:14:12.045Z,4.33
2019-04-28T15:16:49.102Z,4.47
2019-04-28T15:19:26.175Z,4.70
2019-04-28T15:22:03.230Z,5.13
2019-04-28T15:24:40.255Z,5.30
2019-04-28T15:27:17.312Z,4.77
2019-04-28T15:29:54.510Z,4.87
2019-04-28T15:32:38.886Z,4.00
2019-04-28T15:35:15.872Z,6.87
2019-04-28T15:37:53.421Z,4.40
2019-04-28T15:40:30.689Z,5.70
2019-04-28T15:43:07.724Z,5.60
2019-04-28T15:45:44.731Z,7.73
2019-04-28T15:48:29.094Z,6.00
2019-04-28T15:51:06.082Z,5.90
2019-04-28T15:53:50.759Z,4.83
2019-04-28T15:56:29.522Z,7.23
2019-04-28T15:59:10.037Z,8.10
2019-04-28T16:01:47.210Z,7.97
2019-04-28T16:04:24.305Z,6.53
2019-04-28T16:07:01.465Z,8.17
2019-04-28T16:09:40.987Z,7.73
2019-04-28T16:12:17.421Z,6.60
2019-04-28T16:14:54.422Z,7.00
2019-04-28T16:17:31.760Z,8.73
2019-04-28T16:20:08.841Z,6.80
2019-04-28T16:22:45.883Z,7.90
2019-04-28T16:25:22.893Z,9.60
2019-04-28T16:27:59.986Z,9.60
2019-04-28T16:30:37.511Z,9.97
2019-04-28T16:33:14.543Z,12.03
2019-04-28T16:35:55.589Z,10.83
2019-04-28T16:38:32.611Z,10.13
2019-04-28T16:41:09.857Z,12.40
2019-04-28T16:43:47.197Z,8.90
2019-04-28T16:46:24.383Z,15.37
2019-04-28T16:49:05.143Z,12.30
2019-04-28T16:51:42.206Z,13.03
2019-04-28T16:54:19.248Z,12.00
2019-04-28T16:57:00.491Z,12.23
2019-04-28T16:59:41.806Z,12.30
2019-04-28T17:02:20.519Z,13.87
2019-04-28T17:04:57.564Z,12.00
2019-04-28T17:07:34.663Z,13.03
2019-04-28T17:10:11.756Z,17.47
2019-04-28T17:12:48.774Z,12.90
2019-04-28T17:15:25.767Z,15.07
2019-04-28T17:18:02.776Z,13.67
2019-04-28T17:20:39.845Z,17.00
2019-04-28T17:23:16.961Z,15.43
2019-04-28T17:25:54.070Z,16.77
2019-04-28T17:28:32.079Z,14.73
2019-04-28T17:31:09.237Z,15.77
2019-04-28T17:33:46.341Z,15.23
2019-04-28T17:36:23.377Z,16.37
2019-04-28T17:39:01.504Z,15.13
2019-04-28T17:41:38.521Z,15.97
2019-04-28T17:44:17.235Z,16.77
2019-04-28T17:46:54.419Z,18.20
2019-04-28T17:49:33.154Z,17.90
2019-04-28T17:52:13.264Z,20.13
2019-04-28T17:54:50.305Z,17.90
2019-04-28T17:57:27.380Z,20.03
2019-04-28T18:00:23.227Z,17.53
2019-04-28T18:03:05.578Z,20.07
2019-04-28T18:05:44.242Z,20.03
2019-04-28T18:08:21.557Z,22.53
2019-04-28T18:10:58.639Z,19.90
2019-04-28T18:13:35.694Z,23.43
2019-04-28T18:16:25.525Z,25.67
2019-04-28T18:19:14.163Z,24.97
2019-04-28T18:21:51.220Z,29.87
2019-04-28T18:24:32.896Z,24.97
2019-04-28T18:27:13.096Z,28.47
2019-04-28T18:29:58.014Z,25.50
2019-04-28T18:32:55.033Z,27.77
2019-04-28T18:35:33.806Z,26.27
2019-04-28T18:38:12.895Z,28.47
2019-04-28T18:41:17.666Z,25.80
2019-04-28T18:44:08.505Z,26.70
2019-04-28T18:46:45.519Z,30.33
2019-04-28T18:49:25.222Z,22.67
2019-04-28T18:52:02.380Z,25.43
2019-04-28T18:54:39.428Z,23.10
2019-04-28T18:57:16.564Z,24.33
2019-04-28T18:59:53.590Z,25.30
2019-04-28T19:02:35.412Z,23.70
2019-04-28T19:05:12.646Z,25.70
2019-04-28T19:07:51.389Z,26.93
2019-04-28T19:10:40.381Z,23.17
2019-04-28T19:13:19.120Z,18.53
2019-04-28T19:16:07.337Z,23.17
2019-04-28T19:18:46.131Z,22.90
2019-04-28T19:21:30.675Z,20.83
2019-04-28T19:24:08.147Z,21.13
2019-04-28T19:26:45.217Z,20.93
2019-04-28T19:29:23.943Z,21.20
2019-04-28T19:32:01.009Z,22.53
2019-04-28T19:34:38.192Z,19.83
2019-04-28T19:37:16.688Z,19.53
2019-04-28T19:39:53.878Z,25.07
2019-04-28T19:42:31.120Z,20.80
2019-04-28T19:45:12.014Z,23.47
2019-04-28T19:47:49.038Z,26.03
2019-04-28T19:50:26.109Z,23.27
2019-04-28T19:53:05.190Z,20.87
2019-04-28T19:55:45.547Z,25.63
2019-04-28T19:58:29.296Z,22.10
2019-04-28T20:01:23.040Z,18.43
2019-04-28T20:04:00.073Z,17.60
2019-04-28T20:06:41.985Z,17.63
2019-04-28T20:09:19.004Z,18.57
2019-04-28T20:11:56.104Z,20.20
2019-04-28T20:14:33.155Z,15.70
2019-04-28T20:17:10.235Z,19.33
2019-04-28T20:19:48.141Z,16.47
2019-04-28T20:22:25.166Z,15.53
2019-04-28T20:25:02.229Z,17.63
2019-04-28T20:27:39.230Z,14.57
2019-04-28T20:30:17.018Z,19.00
2019-04-28T20:33:06.437Z,17.97
2019-04-28T20:35:40.293Z,16.70
2019-04-28T20:38:28.017Z,17.10
2019-04-28T20:41:12.724Z,13.73
2019-04-28T20:43:49.720Z,17.47
2019-04-28T20:46:27.923Z,17.10
2019-04-28T20:49:04.940Z,15.10
2019-04-28T20:51:42.014Z,15.23
2019-04-28T20:54:18.990Z,15.00
2019-04-28T20:56:56.080Z,17.00
2019-04-28T20:59:33.061Z,16.30
2019-04-28T21:02:11.308Z,16.57
2019-04-28T21:04:48.380Z,14.60
2019-04-28T21:07:25.451Z,14.70
2019-04-28T21:10:02.534Z,16.97
2019-04-28T21:12:40.647Z,16.90
2019-04-28T21:15:17.819Z,18.57
2019-04-28T21:17:54.945Z,18.97
2019-04-28T21:20:32.028Z,16.47
2019-04-28T21:23:09.002Z,16.20
2019-04-28T21:25:49.369Z,19.10
2019-04-28T21:28:26.358Z,14.10
2019-04-28T21:31:03.440Z,15.80
2019-04-28T21:33:40.473Z,16.87
2019-04-28T21:36:17.542Z,13.93
2019-04-28T21:38:55.651Z,14.47
2019-04-28T21:41:36.762Z,14.57
2019-04-28T21:44:21.452Z,14.83
2019-04-28T21:47:03.202Z,12.00
2019-04-28T21:49:42.052Z,14.77
2019-04-28T21:52:19.044Z,14.07
2019-04-28T21:54:56.131Z,15.80
2019-04-28T21:57:34.095Z,14.13
2019-04-28T22:00:16.699Z,12.27
2019-04-28T22:02:53.776Z,15.27
2019-04-28T22:05:31.664Z,12.57
2019-04-28T22:11:34.084Z,10.63
2019-04-28T22:14:11.050Z,9.80
2019-04-28T22:16:48.190Z,13.03
2019-04-28T22:19:25.179Z,11.20
2019-04-28T22:22:02.316Z,12.60
2019-04-28T22:24:50.172Z,12.50
2019-04-28T22:27:28.931Z,10.63
2019-04-28T22:30:08.810Z,10.47
2019-04-28T22:32:45.960Z,10.83
2019-04-28T22:35:22.943Z,9.30
2019-04-28T22:38:02.924Z,9.03
2019-04-28T22:40:39.892Z,9.03
2019-04-28T22:43:16.934Z,8.73
2019-04-28T22:45:53.974Z,8.60
2019-04-28T22:48:31.109Z,11.50
2019-04-28T22:51:08.125Z,8.20
2019-04-28T22:53:45.170Z,11.07
2019-04-28T22:56:25.088Z,9.30
2019-04-28T22:59:03.787Z,9.73
2019-04-28T23:01:42.474Z,7.90
2019-04-28T23:04:27.306Z,7.93
2019-04-28T23:07:04.482Z,8.70
2019-04-28T23:09:41.507Z,7.70
2019-04-28T23:12:18.570Z,9.20
2019-04-28T23:14:55.578Z,9.53
2019-04-28T23:17:32.620Z,12.37
2019-04-28T23:20:12.033Z,11.23
2019-04-28T23:22:50.767Z,10.50
2019-04-28T23:25:27.819Z,8.40
2019-04-28T23:28:04.843Z,9.83
2019-04-28T23:30:44.891Z,10.93
2019-04-28T23:33:21.950Z,8.17
2019-04-28T23:35:58.989Z,12.23
2019-04-28T23:38:36.041Z,10.53
2019-04-28T23:41:30.961Z,14.73
2019-04-28T23:44:07.989Z,11.60
2019-04-28T23:46:58.639Z,12.47
2019-04-28T23:49:35.831Z,13.53
2019-04-28T23:52:20.673Z,14.23
2019-04-28T23:55:05.363Z,14.37
2019-04-28T23:57:42.359Z,14.17
